Time;durP1;ratioP1;P1;durP2;ratioP2;P2;SDS_P1;SDS_P2;PMS_P1;PMS_P2;Temp;Humidity;BMP_temperature;BMP_pressure;BME280_temperature;BME280_humidity;BME280_pressure;Samples;Min_cycle;Max_cycle;Signal;HPM_P1;HPM_P2
2021/10/09 00:00:34;;;;;;;17.33;8.90;;;10.50;85.60;;;;;;5000816;28;20386;-71
2021/10/09 00:02:59;;;;;;;23.23;9.25;;;10.50;85.60;;;;;;5001974;28;20037;-71
2021/10/09 00:05:25;;;;;;;22.40;8.30;;;10.50;85.70;;;;;;5003094;28;20030;-71
2021/10/09 00:07:50;;;;;;;22.98;9.18;;;10.40;85.80;;;;;;5010683;28;20030;-71
2021/10/09 00:10:25;;;;;;;18.88;8.93;;;10.40;86.00;;;;;;5001578;28;20047;-71
2021/10/09 00:12:51;;;;;;;17.27;9.57;;;10.40;86.10;;;;;;5003949;28;20057;-71
2021/10/09 00:15:16;;;;;;;15.95;9.27;;;10.40;86.20;;;;;;5010864;28;20041;-71
2021/10/09 00:17:42;;;;;;;19.83;9.13;;;10.30;86.40;;;;;;5009960;28;20026;-71
2021/10/09 00:20:08;;;;;;;19.50;10.07;;;10.30;86.60;;;;;;5010042;28;20112;-71
2021/10/09 00:22:34;;;;;;;15.60;8.38;;;10.30;87.00;;;;;;5009503;28;20037;-71
2021/10/09 00:24:59;;;;;;;17.48;9.32;;;10.30;86.60;;;;;;5010584;28;20478;-71
2021/10/09 00:27:25;;;;;;;19.88;9.18;;;10.30;86.60;;;;;;5010751;28;20389;-70
2021/10/09 00:29:50;;;;;;;20.80;9.43;;;10.30;86.80;;;;;;5010290;28;20041;-70
2021/10/09 00:32:16;;;;;;;16.35;9.55;;;10.20;87.10;;;;;;5005642;28;20022;-70
2021/10/09 00:34:41;;;;;;;18.45;9.35;;;10.20;87.20;;;;;;5010146;28;20120;-71
2021/10/09 00:37:07;;;;;;;21.65;11.23;;;10.20;87.10;;;;;;5011463;28;20030;-70
2021/10/09 00:39:32;;;;;;;17.42;9.98;;;10.20;87.20;;;;;;5010584;28;20041;-70
2021/10/09 00:41:58;;;;;;;17.45;9.90;;;10.10;87.20;;;;;;5010690;28;20394;-70
2021/10/09 00:44:24;;;;;;;17.30;9.13;;;10.10;87.40;;;;;;5007801;28;20462;-70
2021/10/09 00:46:50;;;;;;;20.25;9.88;;;10.10;87.50;;;;;;5008452;28;20080;-70
2021/10/09 00:49:16;;;;;;;18.02;9.95;;;10.10;87.50;;;;;;5010325;28;20495;-69
2021/10/09 00:51:46;;;;;;;20.02;9.68;;;10.00;87.70;;;;;;5011167;28;20038;-70
2021/10/09 00:54:13;;;;;;;19.60;8.98;;;10.00;88.00;;;;;;5010042;28;20084;-70
2021/10/09 00:56:40;;;;;;;20.42;10.57;;;10.00;88.10;;;;;;4995956;28;20030;-70
2021/10/09 00:59:08;;;;;;;18.15;10.38;;;9.90;87.90;;;;;;5010625;28;20033;-71
2021/10/09 01:01:35;;;;;;;20.40;9.07;;;9.90;88.00;;;;;;5010572;28;20034;-69
2021/10/09 01:04:02;;;;;;;17.17;10.23;;;9.90;88.20;;;;;;5011641;28;20077;-70
2021/10/09 01:06:27;;;;;;;16.40;9.68;;;9.90;88.40;;;;;;5011453;28;21511;-70
2021/10/09 01:08:53;;;;;;;20.35;10.32;;;9.90;88.40;;;;;;5017172;28;20124;-69
2021/10/09 01:11:18;;;;;;;24.58;10.25;;;9.90;88.40;;;;;;5014502;28;20113;-69
2021/10/09 01:13:44;;;;;;;20.92;10.25;;;9.90;88.40;;;;;;5016915;28;20026;-69
2021/10/09 01:16:24;;;;;;;19.85;11.15;;;9.90;88.50;;;;;;5020007;28;20093;-69
2021/10/09 01:18:54;;;;;;;22.27;9.38;;;9.80;88.50;;;;;;5004403;28;20081;-70
2021/10/09 01:21:21;;;;;;;19.80;10.25;;;9.90;88.80;;;;;;5013956;28;20030;-69
2021/10/09 01:23:48;;;;;;;19.17;9.63;;;9.80;88.70;;;;;;5018315;28;20030;-70
2021/10/09 01:26:14;;;;;;;21.02;9.77;;;9.80;88.90;;;;;;5013440;28;20109;-69
2021/10/09 01:28:44;;;;;;;18.77;10.27;;;9.80;89.20;;;;;;5001954;28;20169;-69
2021/10/09 01:31:10;;;;;;;14.80;10.05;;;9.80;89.10;;;;;;5011342;28;20018;-69
2021/10/09 01:33:35;;;;;;;20.23;10.23;;;9.70;88.90;;;;;;5015454;28;20402;-69
2021/10/09 01:36:01;;;;;;;20.63;10.48;;;9.80;89.00;;;;;;5012830;28;20029;-68
2021/10/09 01:38:28;;;;;;;19.02;10.07;;;9.70;89.00;;;;;;5015007;28;20030;-68
2021/10/09 01:41:00;;;;;;;21.30;11.43;;;9.60;89.10;;;;;;5013931;28;20029;-69
2021/10/09 01:43:25;;;;;;;25.35;11.45;;;9.70;89.10;;;;;;5013790;28;20029;-68
2021/10/09 01:45:51;;;;;;;17.42;10.13;;;9.60;89.10;;;;;;5010389;28;20022;-68
2021/10/09 01:48:17;;;;;;;19.92;9.90;;;9.60;89.10;;;;;;5012753;28;20408;-68
2021/10/09 01:50:44;;;;;;;21.60;10.43;;;9.60;89.10;;;;;;5011656;28;20067;-68
2021/10/09 01:53:10;;;;;;;19.92;9.98;;;9.60;89.30;;;;;;5014676;28;20033;-68
2021/10/09 01:55:37;;;;;;;17.95;10.43;;;9.60;89.50;;;;;;5008958;28;20046;-68
2021/10/09 01:58:04;;;;;;;16.80;9.73;;;9.60;89.50;;;;;;5013524;28;20022;-69
2021/10/09 02:00:30;;;;;;;21.15;10.30;;;9.50;89.40;;;;;;5007974;28;20030;-71
2021/10/09 02:03:00;;;;;;;21.90;10.23;;;9.60;89.50;;;;;;4999169;28;20029;-69
2021/10/09 02:05:26;;;;;;;21.17;11.25;;;9.50;89.50;;;;;;5000770;28;20026;-69
2021/10/09 02:07:51;;;;;;;19.63;9.73;;;9.50;89.40;;;;;;5014784;28;20036;-68
2021/10/09 02:10:17;;;;;;;16.17;10.68;;;9.50;89.50;;;;;;5010557;28;20045;-68
2021/10/09 02:12:42;;;;;;;19.65;9.82;;;9.40;89.40;;;;;;5013219;28;20063;-69
2021/10/09 02:15:14;;;;;;;19.83;10.02;;;9.50;89.70;;;;;;5010266;28;20034;-69
2021/10/09 02:25:44;;;;;;;17.07;10.33;;;9.30;89.70;;;;;;5012288;28;20033;-69
2021/10/09 02:28:10;;;;;;;20.73;12.23;;;9.30;89.80;;;;;;5012671;28;20289;-69
2021/10/09 02:30:35;;;;;;;23.33;11.85;;;9.30;89.90;;;;;;5010711;28;20034;-69
2021/10/09 02:33:01;;;;;;;19.92;10.93;;;9.20;90.00;;;;;;5012739;28;20363;-69
2021/10/09 02:35:26;;;;;;;19.83;10.60;;;9.20;89.90;;;;;;4996760;28;20065;-69
2021/10/09 02:37:52;;;;;;;19.50;10.57;;;9.20;89.90;;;;;;5006669;28;20025;-69
2021/10/09 02:40:18;;;;;;;19.83;10.50;;;9.20;89.90;;;;;;5008558;28;20084;-68
2021/10/09 02:42:43;;;;;;;20.08;9.68;;;9.20;90.00;;;;;;5004114;28;20026;-70
2021/10/09 02:45:09;;;;;;;24.35;10.35;;;9.20;90.00;;;;;;5011706;28;20029;-69
2021/10/09 02:47:34;;;;;;;21.00;10.90;;;9.20;90.00;;;;;;5013075;28;20036;-69
2021/10/09 02:50:02;;;;;;;30.10;10.98;;;9.10;90.00;;;;;;5011489;28;20398;-69
2021/10/09 02:52:27;;;;;;;21.98;10.88;;;9.10;90.10;;;;;;5012921;28;20084;-69
2021/10/09 02:54:53;;;;;;;21.25;11.20;;;9.10;90.10;;;;;;5011448;28;20058;-69
2021/10/09 02:57:18;;;;;;;21.30;11.25;;;9.10;90.20;;;;;;5012309;28;20471;-69
2021/10/09 02:59:44;;;;;;;18.35;10.63;;;9.00;90.20;;;;;;5005281;28;20052;-69
2021/10/09 03:02:09;;;;;;;24.38;10.35;;;9.00;90.20;;;;;;5011031;28;20585;-69
2021/10/09 03:04:35;;;;;;;18.23;10.45;;;9.00;90.30;;;;;;5010894;28;20041;-69
2021/10/09 03:07:00;;;;;;;21.33;9.95;;;9.00;90.30;;;;;;5013553;28;20538;-69
2021/10/09 03:09:26;;;;;;;21.05;11.10;;;9.00;90.30;;;;;;5011072;28;20038;-69
2021/10/09 03:11:51;;;;;;;18.35;10.32;;;9.00;90.40;;;;;;5011541;28;20498;-68
2021/10/09 03:14:17;;;;;;;17.90;10.07;;;8.90;90.30;;;;;;5002411;28;20141;-68
2021/10/09 03:16:42;;;;;;;18.02;9.63;;;8.90;90.30;;;;;;4993583;28;20030;-68
2021/10/09 03:19:08;;;;;;;18.63;10.40;;;8.90;90.40;;;;;;5004008;28;20018;-68
2021/10/09 03:21:33;;;;;;;18.42;10.20;;;8.90;90.50;;;;;;5011996;28;20120;-68
2021/10/09 03:23:58;;;;;;;21.77;11.75;;;8.90;90.50;;;;;;5010241;28;20014;-68
2021/10/09 03:26:24;;;;;;;20.70;10.80;;;8.80;90.50;;;;;;5013053;28;20080;-69
2021/10/09 03:28:49;;;;;;;20.65;11.13;;;8.80;90.60;;;;;;5010344;28;20034;-68
2021/10/09 03:31:15;;;;;;;20.55;10.77;;;8.80;90.60;;;;;;5013296;28;20033;-69
2021/10/09 03:33:40;;;;;;;16.33;10.35;;;8.80;90.70;;;;;;5009154;28;20115;-69
2021/10/09 03:36:06;;;;;;;19.90;10.73;;;8.80;90.70;;;;;;5010516;28;20033;-69
2021/10/09 03:38:32;;;;;;;19.20;10.18;;;8.70;90.70;;;;;;5011243;28;20041;-69
2021/10/09 03:41:06;;;;;;;19.38;9.57;;;8.70;90.80;;;;;;5011401;28;20026;-69
2021/10/09 03:43:32;;;;;;;21.48;11.43;;;8.70;90.80;;;;;;5010195;28;20542;-69
2021/10/09 03:46:09;;;;;;;17.13;10.52;;;8.70;90.80;;;;;;4992972;28;20124;-69
2021/10/09 03:48:46;;;;;;;19.50;10.05;;;8.60;90.90;;;;;;5007099;28;20551;-69
2021/10/09 03:53:56;;;;;;;19.65;10.00;;;8.60;90.90;;;;;;5010509;28;20410;-69
2021/10/09 03:56:21;;;;;;;21.63;11.13;;;8.60;91.00;;;;;;5010067;28;20030;-69
2021/10/09 03:58:47;;;;;;;21.02;10.60;;;8.50;91.00;;;;;;5011011;28;20037;-69
2021/10/09 04:01:12;;;;;;;20.65;10.93;;;8.50;91.10;;;;;;5011573;28;20025;-68
2021/10/09 04:03:38;;;;;;;18.67;10.50;;;8.50;91.10;;;;;;5005587;28;20026;-68
2021/10/09 04:06:04;;;;;;;18.98;10.27;;;8.50;91.10;;;;;;5011057;28;20104;-68
2021/10/09 04:08:29;;;;;;;16.50;9.73;;;8.50;91.10;;;;;;4998608;28;20030;-68
2021/10/09 04:10:54;;;;;;;20.27;10.18;;;8.50;91.20;;;;;;5011395;28;20052;-69
2021/10/09 04:13:20;;;;;;;18.67;11.02;;;8.50;91.30;;;;;;5012015;28;20018;-69
2021/10/09 04:15:45;;;;;;;19.88;9.52;;;8.40;91.40;;;;;;5010226;28;20116;-68
2021/10/09 04:18:11;;;;;;;18.23;9.95;;;8.40;91.40;;;;;;5011343;28;20018;-69
2021/10/09 04:20:38;;;;;;;21.48;10.90;;;8.40;91.40;;;;;;5010430;28;20033;-68
2021/10/09 04:23:04;;;;;;;21.00;10.30;;;8.40;91.40;;;;;;5009500;28;20388;-68
2021/10/09 04:25:29;;;;;;;19.42;10.77;;;8.30;91.40;;;;;;4995067;28;20046;-68
2021/10/09 04:27:55;;;;;;;22.92;11.55;;;8.30;91.50;;;;;;5002152;28;20072;-68
2021/10/09 04:30:20;;;;;;;22.48;11.73;;;8.30;91.50;;;;;;5010733;28;20038;-68
2021/10/09 04:32:46;;;;;;;21.42;12.23;;;8.30;91.60;;;;;;5010861;28;20018;-68
2021/10/09 04:35:11;;;;;;;18.38;10.68;;;8.30;91.60;;;;;;5007290;28;20030;-68
2021/10/09 04:37:37;;;;;;;19.23;10.45;;;8.20;91.60;;;;;;4998999;28;20033;-68
2021/10/09 04:40:04;;;;;;;18.23;9.77;;;8.20;91.70;;;;;;5010344;28;20026;-68
2021/10/09 04:42:30;;;;;;;19.05;11.30;;;8.20;91.70;;;;;;5011419;28;20044;-67
2021/10/09 04:44:55;;;;;;;21.33;10.80;;;8.20;91.70;;;;;;5010376;28;20021;-67
2021/10/09 04:47:21;;;;;;;23.27;10.73;;;8.20;91.80;;;;;;5010940;28;20025;-68
2021/10/09 04:49:46;;;;;;;19.13;11.02;;;8.20;91.80;;;;;;5010504;28;20409;-68
2021/10/09 04:52:12;;;;;;;22.60;12.65;;;8.10;91.80;;;;;;4992883;28;20030;-68
2021/10/09 04:54:37;;;;;;;21.90;11.32;;;8.10;91.80;;;;;;4999701;28;20403;-68
2021/10/09 04:57:03;;;;;;;21.92;11.00;;;8.10;91.90;;;;;;4991950;28;20061;-68
2021/10/09 04:59:28;;;;;;;20.10;10.80;;;8.10;91.90;;;;;;5009573;28;20044;-68
2021/10/09 05:01:54;;;;;;;20.17;11.70;;;8.10;92.00;;;;;;5010861;28;20739;-67
2021/10/09 05:04:19;;;;;;;21.15;11.05;;;8.10;92.00;;;;;;4999522;28;20033;-68
2021/10/09 05:06:45;;;;;;;21.25;11.10;;;8.10;92.00;;;;;;5009577;28;20018;-68
2021/10/09 05:09:10;;;;;;;19.40;11.38;;;8.10;92.00;;;;;;5008872;28;20080;-67
2021/10/09 05:11:36;;;;;;;20.17;11.93;;;8.10;92.00;;;;;;5011747;28;20030;-68
2021/10/09 05:14:02;;;;;;;22.17;10.90;;;8.10;92.10;;;;;;5008819;28;20501;-69
2021/10/09 05:16:28;;;;;;;27.23;11.73;;;8.10;92.10;;;;;;5010244;28;20065;-68
2021/10/09 05:18:53;;;;;;;20.85;11.02;;;8.00;92.10;;;;;;5008236;28;20491;-68
2021/10/09 05:21:19;;;;;;;18.35;10.15;;;8.00;92.20;;;;;;5011307;28;20036;-68
2021/10/09 05:23:44;;;;;;;19.98;10.88;;;8.00;92.20;;;;;;5007857;28;20029;-68
2021/10/09 05:26:10;;;;;;;23.52;11.50;;;8.00;92.20;;;;;;5010200;28;20022;-68
2021/10/09 05:28:44;;;;;;;18.65;11.05;;;7.90;92.20;;;;;;5003814;28;20037;-68
2021/10/09 05:31:12;;;;;;;23.40;11.68;;;7.90;92.50;;;;;;5011475;28;20171;-67
2021/10/09 05:33:39;;;;;;;23.25;10.88;;;7.90;92.30;;;;;;4999798;28;20022;-68
2021/10/09 05:36:06;;;;;;;21.40;11.52;;;7.90;92.40;;;;;;4991878;28;20116;-67
2021/10/09 05:38:32;;;;;;;21.42;11.50;;;7.90;92.50;;;;;;5001608;28;20029;-68
2021/10/09 05:40:57;;;;;;;20.83;11.20;;;7.90;92.50;;;;;;5011502;28;20052;-69
2021/10/09 05:43:24;;;;;;;22.67;10.52;;;7.80;92.40;;;;;;5009945;28;20053;-68
2021/10/09 05:45:50;;;;;;;16.58;10.30;;;7.90;92.50;;;;;;5007494;28;20498;-69
2021/10/09 05:48:15;;;;;;;20.48;11.50;;;7.80;92.50;;;;;;5004321;28;20049;-69
2021/10/09 05:51:02;;;;;;;21.13;10.82;;;7.90;92.60;;;;;;5008309;28;20038;-68
2021/10/09 06:45:04;;;;;;;19.08;10.52;;;8.00;92.50;;;;;;5004478;28;20109;-67
2021/10/09 06:47:46;;;;;;;19.10;11.50;;;8.00;92.50;;;;;;5004971;28;20113;-69
2021/10/09 06:50:41;;;;;;;23.23;12.07;;;8.00;92.50;;;;;;5000985;28;20044;-69
2021/10/09 07:01:20;;;;;;;18.90;10.43;;;8.10;92.30;;;;;;5000277;28;20026;-69
2021/10/09 07:03:46;;;;;;;17.20;10.40;;;8.20;92.20;;;;;;5002927;28;20189;-69
2021/10/09 07:06:15;;;;;;;15.40;9.57;;;8.20;92.20;;;;;;5004451;28;20106;-69
2021/10/09 07:08:40;;;;;;;16.52;9.93;;;8.20;92.20;;;;;;5001044;28;20030;-69
2021/10/09 07:11:07;;;;;;;20.38;11.27;;;8.30;92.20;;;;;;5002420;28;20508;-69
2021/10/09 07:13:33;;;;;;;20.00;10.85;;;8.30;92.10;;;;;;5005000;28;20114;-69
2021/10/09 07:15:58;;;;;;;20.25;10.27;;;8.30;92.10;;;;;;5001388;28;20129;-69
2021/10/09 07:18:24;;;;;;;22.02;11.40;;;8.40;92.20;;;;;;5005921;28;20034;-69
2021/10/09 07:20:49;;;;;;;22.80;10.45;;;8.50;92.10;;;;;;5008575;28;20030;-68
2021/10/09 07:23:15;;;;;;;17.73;10.27;;;8.50;92.10;;;;;;5000758;28;20069;-69
2021/10/09 07:25:40;;;;;;;18.17;10.27;;;8.60;92.10;;;;;;5000599;28;20382;-69
2021/10/09 07:28:06;;;;;;;16.58;10.68;;;8.60;92.00;;;;;;5006234;28;20030;-69
2021/10/09 07:30:32;;;;;;;24.65;10.57;;;8.60;91.90;;;;;;4999119;28;20444;-70
2021/10/09 07:32:57;;;;;;;21.33;11.15;;;8.60;91.70;;;;;;5002863;28;20021;-69
2021/10/09 07:35:24;;;;;;;22.00;10.00;;;8.70;91.60;;;;;;4998438;28;20038;-69
2021/10/09 07:37:50;;;;;;;17.30;9.90;;;8.70;91.70;;;;;;5010829;28;20029;-69
2021/10/09 07:40:16;;;;;;;16.48;9.80;;;8.80;91.60;;;;;;4998206;28;20030;-71
2021/10/09 07:42:42;;;;;;;21.63;10.50;;;8.80;91.60;;;;;;5006964;28;20022;-67
2021/10/09 07:45:08;;;;;;;18.27;10.13;;;8.80;91.60;;;;;;4998617;28;20045;-69
2021/10/09 07:47:33;;;;;;;21.48;10.27;;;9.00;91.60;;;;;;4996472;28;20080;-67
2021/10/09 07:49:59;;;;;;;25.55;10.32;;;9.00;91.50;;;;;;5007877;28;20037;-66
2021/10/09 07:52:24;;;;;;;29.05;11.15;;;9.10;91.40;;;;;;5008737;28;20027;-67
2021/10/09 07:54:50;;;;;;;19.15;8.98;;;9.20;91.50;;;;;;5004657;28;20057;-69
2021/10/09 07:57:15;;;;;;;15.93;9.95;;;9.30;91.60;;;;;;5008517;28;20145;-69
2021/10/09 07:59:41;;;;;;;15.15;8.52;;;9.30;91.30;;;;;;5008779;28;20026;-69
2021/10/09 08:02:06;;;;;;;16.08;8.80;;;9.40;91.30;;;;;;5008171;28;20029;-70
2021/10/09 08:04:32;;;;;;;16.05;9.02;;;9.40;91.00;;;;;;5001675;28;20394;-69
2021/10/09 08:06:58;;;;;;;16.83;9.90;;;9.50;91.00;;;;;;4995540;28;20168;-72
2021/10/09 08:09:30;;;;;;;16.42;9.15;;;9.60;90.90;;;;;;4999439;28;20495;-70
2021/10/09 08:11:55;;;;;;;14.02;8.80;;;9.60;90.90;;;;;;4993568;28;20030;-69
2021/10/09 08:14:21;;;;;;;17.02;9.75;;;9.70;90.70;;;;;;4993794;28;20414;-70
2021/10/09 08:16:47;;;;;;;17.17;9.75;;;9.80;90.70;;;;;;5007283;28;20418;-70
2021/10/09 08:19:13;;;;;;;16.23;8.50;;;9.80;90.50;;;;;;5010285;28;20026;-73
2021/10/09 08:21:43;;;;;;;17.15;8.45;;;9.90;90.60;;;;;;5006049;28;20046;-72
2021/10/09 08:24:18;;;;;;;15.20;8.60;;;10.00;90.30;;;;;;4992706;28;20096;-79
2021/10/09 08:40:22;;;;;;;17.95;8.38;;;10.40;90.00;;;;;;5003148;28;20100;-72
2021/10/09 08:42:47;;;;;;;16.60;8.32;;;10.50;89.40;;;;;;5008205;28;20616;-72
2021/10/09 08:45:14;;;;;;;12.10;7.47;;;10.60;90.00;;;;;;5004450;28;20061;-72
2021/10/09 08:47:41;;;;;;;16.10;8.32;;;10.70;89.70;;;;;;5008846;28;20038;-72
2021/10/09 08:50:09;;;;;;;15.00;7.63;;;10.70;89.30;;;;;;5003523;28;20042;-72
2021/10/09 08:52:35;;;;;;;12.65;7.65;;;10.80;88.90;;;;;;5004044;28;20390;-72
2021/10/09 08:55:25;;;;;;;13.32;6.95;;;10.90;89.00;;;;;;5006064;28;20137;-72
2021/10/09 08:57:51;;;;;;;14.00;7.78;;;11.10;88.60;;;;;;5004575;28;20022;-72
2021/10/09 09:00:22;;;;;;;11.90;6.60;;;11.10;88.80;;;;;;4999183;28;20494;-72
2021/10/09 09:03:00;;;;;;;12.98;7.22;;;11.20;87.80;;;;;;5001347;28;20038;-73
2021/10/09 09:30:33;;;;;;;9.02;5.85;;;12.00;81.50;;;;;;5010801;28;20494;-71
2021/10/09 09:33:32;;;;;;;14.93;6.28;;;12.10;82.00;;;;;;5005201;28;20047;-70
2021/10/09 09:41:21;;;;;;;15.05;5.75;;;12.30;80.00;;;;;;5006681;28;20474;-71
2021/10/09 09:43:51;;;;;;;11.65;6.47;;;12.40;78.00;;;;;;5008776;28;20045;-71
2021/10/09 09:46:24;;;;;;;9.25;5.40;;;12.40;77.70;;;;;;5003023;28;20490;-71
2021/10/09 09:48:51;;;;;;;11.13;5.72;;;12.50;76.60;;;;;;5008729;28;20042;-71
2021/10/09 09:51:19;;;;;;;9.20;5.43;;;12.60;77.60;;;;;;4995315;28;20037;-72
2021/10/09 09:53:47;;;;;;;9.10;5.50;;;12.70;77.00;;;;;;5009003;28;20042;-71
2021/10/09 09:56:14;;;;;;;10.45;6.18;;;12.70;75.60;;;;;;5013043;28;20118;-71
2021/10/09 09:58:42;;;;;;;8.50;5.20;;;12.80;75.60;;;;;;4999566;28;20098;-72
2021/10/09 10:01:09;;;;;;;9.30;5.20;;;12.90;75.10;;;;;;4995359;28;20069;-71
2021/10/09 10:03:37;;;;;;;11.20;5.43;;;12.90;74.60;;;;;;5008047;28;20049;-71
2021/10/09 10:06:04;;;;;;;10.43;5.78;;;13.00;74.00;;;;;;5013822;28;20028;-70
2021/10/09 10:08:29;;;;;;;10.45;5.55;;;13.10;73.50;;;;;;5013023;28;20072;-71
2021/10/09 10:10:56;;;;;;;9.38;5.43;;;13.10;72.70;;;;;;4995374;28;20038;-71
2021/10/09 10:13:28;;;;;;;10.32;5.32;;;13.10;72.70;;;;;;4994999;28;20034;-71
2021/10/09 10:15:55;;;;;;;9.60;5.30;;;13.20;71.70;;;;;;5008835;28;20037;-72
2021/10/09 10:18:49;;;;;;;8.10;4.78;;;13.20;72.10;;;;;;5013303;28;20030;-71
2021/10/09 10:21:38;;;;;;;6.78;4.53;;;13.30;72.10;;;;;;5018314;28;20096;-69
2021/10/09 10:24:04;;;;;;;9.43;5.65;;;13.40;72.20;;;;;;5001584;28;20475;-72
2021/10/09 10:26:32;;;;;;;8.30;4.90;;;13.50;73.00;;;;;;5012382;28;20021;-71
2021/10/09 10:28:57;;;;;;;7.93;5.22;;;13.50;71.80;;;;;;5002079;28;20030;-71
2021/10/09 10:31:27;;;;;;;13.18;5.57;;;13.50;71.80;;;;;;4995766;28;20023;-71
2021/10/09 10:34:25;;;;;;;10.93;5.97;;;13.70;70.90;;;;;;5005179;28;20034;-72
2021/10/09 10:36:51;;;;;;;12.07;5.25;;;13.70;71.30;;;;;;5026450;28;20022;-71
2021/10/09 10:39:20;;;;;;;10.35;6.13;;;13.70;70.30;;;;;;5013130;28;20030;-72
2021/10/09 10:41:53;;;;;;;10.77;5.13;;;13.70;70.10;;;;;;5013547;28;20525;-72
2021/10/09 10:44:59;;;;;;;8.35;4.70;;;13.80;70.20;;;;;;5012787;28;20593;-71
2021/10/09 10:47:41;;;;;;;;;;;13.80;70.30;;;;;;5009235;28;20117;-71
2021/10/09 10:50:20;;;;;;;10.70;5.20;;;13.90;70.70;;;;;;5013882;28;19913;-72
2021/10/09 10:53:04;;;;;;;8.35;5.00;;;13.90;70.90;;;;;;5001411;28;20164;-72
2021/10/09 10:56:06;;;;;;;9.82;5.43;;;14.00;70.80;;;;;;5013546;28;20054;-72
2021/10/09 10:58:32;;;;;;;9.35;4.90;;;14.10;69.60;;;;;;5010423;28;20073;-72
2021/10/09 11:01:24;;;;;;;7.88;5.22;;;14.10;69.30;;;;;;5009498;28;20065;-71
2021/10/09 11:03:55;;;;;;;8.45;4.40;;;14.20;67.50;;;;;;5010684;28;20029;-72
2021/10/09 11:06:25;;;;;;;5.40;3.67;;;14.30;68.00;;;;;;5012813;28;20034;-72
2021/10/09 11:08:53;;;;;;;7.65;5.35;;;14.30;67.20;;;;;;5014968;28;20033;-72
2021/10/09 11:11:37;;;;;;;6.45;4.25;;;14.40;68.10;;;;;;4997156;28;20494;-73
2021/10/09 11:14:03;;;;;;;7.32;4.18;;;14.50;68.90;;;;;;4994761;28;20060;-72
2021/10/09 11:16:29;;;;;;;6.35;4.57;;;14.50;67.90;;;;;;5010444;28;20030;-72
2021/10/09 11:18:55;;;;;;;11.05;5.80;;;14.60;68.10;;;;;;5005206;28;20030;-71
2021/10/09 11:21:21;;;;;;;7.55;4.53;;;14.60;66.90;;;;;;5015059;28;20041;-70
2021/10/09 11:23:58;;;;;;;8.70;4.28;;;14.60;66.70;;;;;;5016848;28;20033;-70
2021/10/09 11:26:28;;;;;;;7.97;4.18;;;14.70;66.20;;;;;;5007167;28;20482;-71
2021/10/09 11:29:03;;;;;;;6.63;4.90;;;14.80;65.40;;;;;;5005808;28;20042;-71
2021/10/09 11:31:29;;;;;;;6.55;4.70;;;14.80;65.60;;;;;;5014989;28;20040;-70
2021/10/09 11:33:56;;;;;;;8.45;4.45;;;14.80;65.60;;;;;;5008774;28;20073;-69
2021/10/09 11:36:22;;;;;;;6.53;4.10;;;14.90;65.20;;;;;;5001582;28;20108;-69
2021/10/09 11:38:47;;;;;;;7.82;4.50;;;14.90;65.40;;;;;;5002355;28;20022;-68
2021/10/09 11:41:22;;;;;;;7.50;4.55;;;14.90;64.20;;;;;;5010080;28;20025;-67
2021/10/09 11:43:52;;;;;;;10.98;4.63;;;15.00;64.80;;;;;;5001627;28;20030;-67
2021/10/09 11:55:19;;;;;;;8.05;4.60;;;15.20;62.90;;;;;;5007662;28;20046;-69
2021/10/09 11:57:45;;;;;;;14.10;4.32;;;15.30;62.70;;;;;;5002152;28;20510;-69
2021/10/09 12:00:29;;;;;;;6.10;4.15;;;15.30;62.80;;;;;;5003394;28;20026;-70
2021/10/09 12:03:22;;;;;;;6.50;3.40;;;15.30;62.70;;;;;;5008130;28;20034;-70
2021/10/09 12:05:55;;;;;;;6.78;3.80;;;15.40;62.40;;;;;;5006042;28;20124;-70
2021/10/09 12:08:28;;;;;;;8.27;4.22;;;15.40;62.20;;;;;;5010082;28;20091;-69
2021/10/09 12:11:13;;;;;;;7.47;4.30;;;15.50;62.40;;;;;;5004240;28;20060;-70
2021/10/09 12:14:05;;;;;;;6.55;4.10;;;15.50;61.60;;;;;;5007703;28;20076;-70
2021/10/09 12:16:35;;;;;;;7.03;3.92;;;15.50;61.50;;;;;;5010285;28;20034;-68
2021/10/09 12:19:12;;;;;;;5.07;3.63;;;15.50;61.20;;;;;;5004619;28;20037;-69
2021/10/09 12:21:53;;;;;;;5.47;3.70;;;15.50;60.70;;;;;;5005207;28;20026;-70
2021/10/09 12:24:20;;;;;;;7.03;3.65;;;15.60;60.70;;;;;;4998050;28;20038;-70
2021/10/09 12:27:22;;;;;;;14.15;4.15;;;15.60;60.70;;;;;;5005637;28;20030;-70
2021/10/09 12:30:10;;;;;;;6.50;3.80;;;15.60;60.80;;;;;;5001393;28;20137;-71
2021/10/09 12:32:50;;;;;;;5.30;3.40;;;15.70;60.10;;;;;;4996623;28;20030;-70
2021/10/09 12:35:26;;;;;;;7.40;3.65;;;15.70;60.00;;;;;;5006620;28;20022;-71
2021/10/09 12:37:58;;;;;;;5.63;3.63;;;15.70;60.10;;;;;;4998149;28;20038;-70
2021/10/09 12:40:26;;;;;;;6.88;4.07;;;15.80;60.20;;;;;;5001828;28;20037;-71
2021/10/09 12:42:55;;;;;;;8.77;3.88;;;15.80;60.30;;;;;;5002713;28;20027;-71
2021/10/09 12:45:22;;;;;;;5.63;3.35;;;15.90;60.60;;;;;;5005396;28;20383;-71
2021/10/09 12:47:48;;;;;;;5.32;3.30;;;15.90;60.00;;;;;;5009825;28;20034;-72
2021/10/09 12:50:14;;;;;;;6.55;3.35;;;15.90;59.40;;;;;;5002664;28;20581;-71
2021/10/09 12:52:40;;;;;;;5.40;3.38;;;15.90;58.50;;;;;;5005341;28;20036;-71
2021/10/09 12:55:06;;;;;;;5.10;3.28;;;15.90;58.50;;;;;;5005914;28;20050;-71
2021/10/09 12:57:33;;;;;;;6.15;4.20;;;15.90;58.70;;;;;;5000711;28;20038;-71
2021/10/09 13:00:00;;;;;;;6.80;3.85;;;16.00;59.60;;;;;;5007527;28;20030;-72
2021/10/09 13:02:26;;;;;;;7.72;4.32;;;16.00;59.80;;;;;;5006747;28;20109;-72
2021/10/09 13:04:51;;;;;;;7.28;4.05;;;16.10;59.60;;;;;;4998771;28;20029;-72
2021/10/09 13:07:17;;;;;;;6.75;3.70;;;16.20;59.10;;;;;;4999188;28;20017;-70
2021/10/09 13:09:43;;;;;;;4.90;3.10;;;16.20;58.10;;;;;;5004907;28;20030;-71
2021/10/09 13:12:12;;;;;;;5.57;3.53;;;16.20;57.70;;;;;;5003408;28;20421;-71
2021/10/09 13:14:37;;;;;;;5.95;3.38;;;16.20;57.60;;;;;;5005667;28;20036;-71
2021/10/09 13:17:03;;;;;;;6.60;3.58;;;16.30;57.20;;;;;;5005581;28;20468;-72
2021/10/09 13:19:29;;;;;;;5.15;3.58;;;16.20;57.30;;;;;;5010416;28;20053;-71
2021/10/09 13:21:54;;;;;;;4.82;3.28;;;16.30;56.70;;;;;;5004201;28;20367;-73
2021/10/09 13:24:20;;;;;;;5.75;3.00;;;16.30;56.70;;;;;;5011463;28;20037;-71
2021/10/09 13:26:45;;;;;;;7.22;3.45;;;16.30;55.90;;;;;;5010489;28;20040;-71
2021/10/09 13:29:11;;;;;;;6.97;3.22;;;16.30;56.60;;;;;;5007298;28;20014;-71
2021/10/09 13:31:37;;;;;;;5.07;3.13;;;16.40;56.90;;;;;;5002100;28;20601;-72
2021/10/09 13:34:02;;;;;;;7.30;3.00;;;16.40;56.40;;;;;;5008031;28;20030;-72
2021/10/09 13:36:28;;;;;;;5.32;3.55;;;16.40;55.50;;;;;;5001855;28;20526;-72
2021/10/09 13:38:53;;;;;;;6.47;3.47;;;16.40;55.90;;;;;;5014758;28;20105;-72
2021/10/09 13:41:19;;;;;;;4.30;3.05;;;16.50;55.90;;;;;;5020738;28;20030;-72
2021/10/09 13:43:44;;;;;;;5.75;3.40;;;16.60;56.10;;;;;;5011940;28;20083;-72
2021/10/09 13:46:13;;;;;;;5.88;3.38;;;16.60;56.30;;;;;;5014054;28;20437;-72
2021/10/09 13:48:41;;;;;;;5.25;2.83;;;16.60;55.70;;;;;;5012281;28;20034;-72
2021/10/09 13:51:12;;;;;;;4.60;3.08;;;16.60;55.10;;;;;;5006533;28;20509;-72
2021/10/09 13:53:38;;;;;;;5.45;3.10;;;16.70;55.40;;;;;;4995969;28;20375;-72
2021/10/09 13:56:03;;;;;;;4.70;3.30;;;16.70;55.20;;;;;;4994777;28;20041;-72
2021/10/09 13:58:29;;;;;;;7.53;3.95;;;16.80;56.10;;;;;;5017093;28;20113;-72
2021/10/09 14:00:54;;;;;;;4.22;3.17;;;16.80;55.70;;;;;;5011851;28;20104;-73
2021/10/09 14:03:20;;;;;;;6.85;4.53;;;16.90;54.90;;;;;;5013325;28;20466;-72
2021/10/09 14:05:47;;;;;;;32.17;23.50;;;16.90;55.10;;;;;;5010310;28;20038;-72
2021/10/09 14:08:12;;;;;;;10.95;7.30;;;16.90;55.20;;;;;;5001868;28;20033;-72
2021/10/09 14:10:39;;;;;;;9.55;4.78;;;17.00;55.10;;;;;;5011169;28;20033;-71
2021/10/09 14:13:07;;;;;;;10.25;6.53;;;17.00;54.50;;;;;;5002717;28;20031;-71
2021/10/09 14:15:32;;;;;;;9.15;6.32;;;17.00;54.10;;;;;;5003717;28;20096;-72
2021/10/09 14:17:58;;;;;;;6.28;4.63;;;17.10;54.10;;;;;;5007678;28;20030;-72
2021/10/09 14:20:23;;;;;;;8.00;3.97;;;17.10;54.30;;;;;;5010495;28;20092;-73
2021/10/09 14:22:49;;;;;;;6.75;4.80;;;17.10;54.70;;;;;;5006547;28;20088;-74
2021/10/09 14:25:15;;;;;;;7.43;4.90;;;17.10;54.90;;;;;;5010703;28;20030;-73
2021/10/09 14:27:43;;;;;;;5.85;3.75;;;17.20;54.10;;;;;;5006573;28;20450;-75
2021/10/09 14:30:10;;;;;;;6.35;4.22;;;17.10;54.00;;;;;;5003815;28;20116;-73
2021/10/09 14:32:36;;;;;;;4.78;3.10;;;17.10;54.70;;;;;;5005274;28;20113;-71
2021/10/09 14:35:05;;;;;;;5.25;3.40;;;17.20;54.30;;;;;;5006243;28;20515;-71
2021/10/09 14:37:30;;;;;;;7.72;3.80;;;17.20;53.90;;;;;;5011234;28;20092;-69
2021/10/09 14:39:56;;;;;;;4.28;3.33;;;17.20;54.00;;;;;;4998860;28;20022;-72
2021/10/09 14:42:21;;;;;;;4.55;3.00;;;17.30;54.30;;;;;;5003468;28;20105;-72
2021/10/09 14:44:48;;;;;;;4.40;3.08;;;17.30;54.20;;;;;;5008913;28;20037;-71
2021/10/09 14:47:35;;;;;;;7.43;3.53;;;17.40;54.20;;;;;;4996429;28;20117;-72
2021/10/09 14:50:23;;;;;;;4.63;3.67;;;17.40;54.10;;;;;;5000650;28;20061;-72